Time;durP1;ratioP1;P1;durP2;ratioP2;P2;SDS_P1;SDS_P2;PMS_P1;PMS_P2;Temp;Humidity;BMP_temperature;BMP_pressure;BME280_temperature;BME280_humidity;BME280_pressure;Samples;Min_cycle;Max_cycle;Signal;HPM_P1;HPM_P2
2023/06/20 00:01:06;;;;;;;17.83;14.10;;;16.60;91.30;;;;;;5003384;28;20506;-66
2023/06/20 00:03:31;;;;;;;23.48;16.08;;;16.60;91.70;;;;;;5001986;28;20760;-65
2023/06/20 00:05:57;;;;;;;20.48;15.18;;;16.60;92.10;;;;;;5007525;28;20090;-66
2023/06/20 00:08:22;;;;;;;18.83;14.70;;;16.60;92.10;;;;;;5005288;28;20052;-67
2023/06/20 00:10:48;;;;;;;20.83;15.43;;;16.60;92.20;;;;;;5004591;28;20107;-65
2023/06/20 00:13:13;;;;;;;18.50;14.75;;;16.60;92.00;;;;;;5007580;28;20052;-66
2023/06/20 00:15:41;;;;;;;19.88;14.25;;;16.50;91.80;;;;;;5000653;28;20105;-65
2023/06/20 00:18:06;;;;;;;21.00;14.57;;;16.50;91.70;;;;;;5006044;28;20041;-67
2023/06/20 00:20:32;;;;;;;19.10;12.90;;;16.50;91.50;;;;;;5012014;28;20034;-66
2023/06/20 00:22:57;;;;;;;20.65;13.63;;;16.40;92.00;;;;;;4999545;28;20144;-65
2023/06/20 00:25:23;;;;;;;17.02;12.75;;;16.30;91.70;;;;;;5011235;28;20367;-66
2023/06/20 00:27:48;;;;;;;18.42;13.10;;;16.30;91.80;;;;;;5001020;28;20064;-65
2023/06/20 00:30:14;;;;;;;15.80;11.95;;;16.30;91.50;;;;;;5008596;28;20438;-65
2023/06/20 00:32:40;;;;;;;16.70;12.80;;;16.20;91.60;;;;;;5018696;28;20059;-66
2023/06/20 00:35:05;;;;;;;18.35;12.15;;;16.30;91.50;;;;;;5012906;28;20021;-65
2023/06/20 00:37:31;;;;;;;16.58;13.15;;;16.20;91.70;;;;;;5001654;28;20018;-65
2023/06/20 00:39:57;;;;;;;19.98;13.48;;;16.20;91.70;;;;;;5002929;28;20081;-67
2023/06/20 00:42:23;;;;;;;19.30;12.45;;;16.20;91.70;;;;;;5006501;28;20034;-65
2023/06/20 00:44:50;;;;;;;13.98;12.10;;;16.20;91.50;;;;;;5006196;28;20022;-65
2023/06/20 00:47:17;;;;;;;17.15;12.02;;;16.20;91.70;;;;;;5013457;28;20563;-67
2023/06/20 00:49:48;;;;;;;17.67;12.52;;;16.20;91.30;;;;;;5004477;28;20033;-65
2023/06/20 00:52:17;;;;;;;18.27;13.00;;;16.20;91.50;;;;;;5003578;28;20026;-65
2023/06/20 00:54:47;;;;;;;16.05;11.60;;;16.20;91.50;;;;;;5007697;28;20347;-66
2023/06/20 00:57:14;;;;;;;14.35;11.52;;;16.20;91.40;;;;;;5004950;28;20041;-65
2023/06/20 00:59:43;;;;;;;15.23;11.55;;;16.20;91.50;;;;;;5006382;28;20136;-65
2023/06/20 01:02:10;;;;;;;18.95;11.60;;;16.20;91.50;;;;;;5002687;28;20034;-65
2023/06/20 01:04:37;;;;;;;17.42;11.55;;;16.10;91.40;;;;;;5009162;28;20053;-65
2023/06/20 01:07:16;;;;;;;16.08;12.18;;;16.10;91.40;;;;;;5001186;28;20447;-69
2023/06/20 01:10:03;;;;;;;13.45;11.40;;;16.10;91.50;;;;;;5024301;28;20032;-65
2023/06/20 01:12:35;;;;;;;15.48;10.73;;;16.10;91.50;;;;;;5002419;28;20582;-66
2023/06/20 01:15:27;;;;;;;15.65;11.40;;;16.10;91.20;;;;;;5003052;28;20030;-65
2023/06/20 01:18:10;;;;;;;14.15;11.40;;;16.10;91.50;;;;;;4999936;28;20065;-65
2023/06/20 01:20:43;;;;;;;21.25;12.93;;;16.00;91.20;;;;;;5004652;28;20048;-65
2023/06/20 01:23:13;;;;;;;20.73;13.80;;;16.10;91.30;;;;;;4997340;28;20582;-65
2023/06/20 01:25:46;;;;;;;18.17;13.10;;;16.10;91.20;;;;;;5008866;28;20044;-65
2023/06/20 01:28:25;;;;;;;16.65;12.25;;;16.10;91.30;;;;;;5004278;28;20084;-65
2023/06/20 01:30:59;;;;;;;17.33;12.07;;;16.10;91.20;;;;;;5005795;28;20022;-66
2023/06/20 01:33:29;;;;;;;18.48;13.55;;;16.10;91.40;;;;;;4997156;28;20049;-67
2023/06/20 01:35:56;;;;;;;17.95;13.15;;;16.10;91.40;;;;;;4998082;28;20057;-66
2023/06/20 01:38:26;;;;;;;19.27;13.07;;;16.10;91.30;;;;;;5003386;28;20114;-67
2023/06/20 01:40:51;;;;;;;15.43;11.73;;;16.10;91.20;;;;;;5007645;28;20080;-65
2023/06/20 01:43:19;;;;;;;19.25;13.73;;;16.00;91.60;;;;;;5003219;28;20307;-65
2023/06/20 01:45:47;;;;;;;20.65;13.52;;;16.00;91.40;;;;;;5002672;28;20558;-65
2023/06/20 01:48:14;;;;;;;20.75;13.43;;;16.00;91.30;;;;;;5003209;28;20049;-65
2023/06/20 01:50:41;;;;;;;19.85;14.05;;;16.00;91.40;;;;;;5003833;28;20101;-65
2023/06/20 01:53:08;;;;;;;16.02;12.77;;;16.00;91.50;;;;;;5000162;28;20055;-66
2023/06/20 01:55:36;;;;;;;17.95;13.32;;;16.00;91.50;;;;;;5001490;28;20100;-67
2023/06/20 01:58:02;;;;;;;19.00;13.60;;;16.00;91.40;;;;;;5005102;28;20149;-66
2023/06/20 02:00:29;;;;;;;17.05;13.23;;;16.00;91.20;;;;;;5000289;28;20096;-66
2023/06/20 02:02:56;;;;;;;17.27;13.52;;;16.00;91.20;;;;;;4986919;28;20052;-66
2023/06/20 02:05:25;;;;;;;16.83;13.07;;;16.00;91.40;;;;;;4987268;28;20030;-66
2023/06/20 02:07:53;;;;;;;16.58;13.48;;;15.90;91.40;;;;;;4985585;28;20458;-66
2023/06/20 02:10:21;;;;;;;14.15;12.48;;;16.00;91.40;;;;;;4985074;28;20627;-66
2023/06/20 02:12:50;;;;;;;20.80;13.57;;;15.90;91.30;;;;;;4986771;28;20041;-69
2023/06/20 02:15:17;;;;;;;17.52;13.32;;;15.80;91.40;;;;;;4985753;28;20041;-68
2023/06/20 02:17:44;;;;;;;17.30;12.23;;;15.80;91.20;;;;;;4986509;28;20133;-68
2023/06/20 02:20:10;;;;;;;18.08;13.23;;;15.80;91.10;;;;;;4988260;28;20100;-68
2023/06/20 02:22:38;;;;;;;16.63;12.18;;;15.70;91.30;;;;;;4982438;28;20034;-67
2023/06/20 02:25:07;;;;;;;15.88;12.48;;;15.70;91.50;;;;;;4983881;28;20038;-71
2023/06/20 02:27:33;;;;;;;18.88;13.95;;;15.60;91.60;;;;;;4984697;28;20121;-67
2023/06/20 02:30:00;;;;;;;19.33;13.40;;;15.60;91.60;;;;;;4988497;28;20034;-67
2023/06/20 02:32:28;;;;;;;19.15;13.35;;;15.50;91.70;;;;;;4984534;28;20062;-68
2023/06/20 02:34:55;;;;;;;19.13;14.20;;;15.50;92.10;;;;;;4983003;28;20052;-66
2023/06/20 02:37:23;;;;;;;20.83;14.32;;;15.60;92.50;;;;;;4982088;28;20483;-66
2023/06/20 02:39:48;;;;;;;19.13;13.95;;;15.60;92.50;;;;;;4984011;28;20049;-67
2023/06/20 02:42:14;;;;;;;19.42;13.60;;;15.60;92.60;;;;;;4985949;28;20037;-66
2023/06/20 02:44:39;;;;;;;17.15;12.48;;;15.60;92.80;;;;;;4986470;28;20025;-66
2023/06/20 02:47:14;;;;;;;16.35;13.80;;;15.50;92.10;;;;;;4986213;28;20049;-68
2023/06/20 02:49:58;;;;;;;19.42;13.82;;;15.50;92.10;;;;;;4985725;28;20110;-67
2023/06/20 02:52:29;;;;;;;20.85;14.60;;;15.50;92.50;;;;;;4986294;28;20029;-67
2023/06/20 02:55:17;;;;;;;20.90;14.48;;;15.50;92.70;;;;;;4991533;28;20136;-68
2023/06/20 02:57:46;;;;;;;21.40;14.88;;;15.50;92.50;;;;;;4990284;28;21159;-70
2023/06/20 03:00:13;;;;;;;18.83;14.82;;;15.40;92.20;;;;;;4988562;28;20119;-66
2023/06/20 03:02:55;;;;;;;22.13;13.98;;;15.40;92.40;;;;;;4991235;28;20048;-66
2023/06/20 03:05:23;;;;;;;19.70;14.20;;;15.40;92.50;;;;;;4988211;28;20875;-67
2023/06/20 03:07:49;;;;;;;18.90;14.75;;;15.40;92.50;;;;;;4988542;28;20030;-69
2023/06/20 03:10:15;;;;;;;18.83;14.90;;;15.40;92.30;;;;;;4989286;28;20541;-66
2023/06/20 03:12:40;;;;;;;21.20;15.77;;;15.30;92.50;;;;;;4991329;28;20177;-70
2023/06/20 03:15:07;;;;;;;21.52;16.02;;;15.30;92.60;;;;;;4989092;28;20034;-70
2023/06/20 03:17:35;;;;;;;24.85;17.10;;;15.30;92.80;;;;;;4990191;28;20449;-68
2023/06/20 03:20:03;;;;;;;26.15;17.27;;;15.40;92.80;;;;;;4987982;28;20038;-68
2023/06/20 03:22:30;;;;;;;26.42;17.48;;;15.40;92.90;;;;;;4986049;28;20038;-68
2023/06/20 03:24:55;;;;;;;20.00;15.95;;;15.40;93.00;;;;;;4989648;28;20014;-65
2023/06/20 03:27:20;;;;;;;19.58;16.23;;;15.50;92.90;;;;;;4990017;28;20493;-67
2023/06/20 03:29:46;;;;;;;23.13;15.10;;;15.40;92.60;;;;;;4988894;28;20040;-67
2023/06/20 03:32:11;;;;;;;22.65;16.67;;;15.50;92.80;;;;;;4989495;28;20446;-66
2023/06/20 03:34:38;;;;;;;19.88;15.20;;;15.50;93.00;;;;;;4987518;28;20585;-66
2023/06/20 03:37:03;;;;;;;22.13;14.90;;;15.50;93.20;;;;;;4990704;28;20065;-68
2023/06/20 03:39:29;;;;;;;27.90;16.38;;;15.60;93.00;;;;;;4987208;28;20240;-66
2023/06/20 03:41:54;;;;;;;18.92;15.35;;;15.60;92.90;;;;;;4990350;28;20041;-67
2023/06/20 03:44:20;;;;;;;20.83;15.98;;;15.60;92.90;;;;;;4988481;28;20470;-70
2023/06/20 03:46:45;;;;;;;21.90;15.40;;;15.70;93.10;;;;;;4987471;28;20061;-69
2023/06/20 03:49:11;;;;;;;21.88;15.98;;;15.70;93.20;;;;;;4990541;28;21847;-68
2023/06/20 03:51:38;;;;;;;23.30;16.23;;;15.80;93.20;;;;;;4989051;28;20108;-66
2023/06/20 03:54:03;;;;;;;20.35;16.00;;;15.80;93.10;;;;;;4985275;28;20634;-69
2023/06/20 03:56:29;;;;;;;20.13;16.52;;;16.00;93.20;;;;;;4985694;28;20128;-69
2023/06/20 03:58:54;;;;;;;26.60;15.85;;;16.00;93.10;;;;;;4988152;28;21864;-67
2023/06/20 04:01:24;;;;;;;23.63;15.27;;;16.00;93.10;;;;;;4986451;28;20121;-67
2023/06/20 04:03:50;;;;;;;20.52;14.88;;;16.10;92.90;;;;;;4988245;28;20041;-67
2023/06/20 04:06:15;;;;;;;18.80;14.25;;;16.20;92.60;;;;;;4987414;28;20272;-67
2023/06/20 04:08:42;;;;;;;20.42;14.40;;;16.30;92.60;;;;;;4986909;28;20410;-68
2023/06/20 04:11:08;;;;;;;17.48;13.98;;;16.30;92.30;;;;;;4990312;28;20030;-69
2023/06/20 04:13:33;;;;;;;18.50;14.32;;;16.40;92.30;;;;;;4990143;28;20053;-69
2023/06/20 04:15:59;;;;;;;16.27;13.45;;;16.50;92.20;;;;;;4986646;28;20091;-66
2023/06/20 04:18:24;;;;;;;18.38;13.43;;;16.50;92.00;;;;;;4985093;28;20144;-68
2023/06/20 04:20:50;;;;;;;18.92;13.95;;;16.60;91.80;;;;;;4987172;28;20044;-69
2023/06/20 04:23:15;;;;;;;17.45;13.43;;;16.70;91.50;;;;;;4982776;28;20390;-67
2023/06/20 04:25:41;;;;;;;17.90;12.93;;;16.70;91.40;;;;;;4987412;28;20030;-67
2023/06/20 04:28:06;;;;;;;17.23;13.30;;;16.90;91.10;;;;;;4988779;28;20042;-67
2023/06/20 04:30:32;;;;;;;16.10;11.82;;;16.90;90.90;;;;;;4985756;28;20104;-65
2023/06/20 04:32:57;;;;;;;19.65;12.40;;;17.00;90.80;;;;;;4985615;28;20957;-64
2023/06/20 04:35:22;;;;;;;14.70;11.57;;;17.00;90.50;;;;;;4988334;28;20034;-66
2023/06/20 04:37:51;;;;;;;16.98;11.65;;;17.10;90.30;;;;;;4986042;28;20033;-65
2023/06/20 04:40:19;;;;;;;18.38;11.75;;;17.20;90.10;;;;;;4987293;28;20022;-65
2023/06/20 04:42:45;;;;;;;15.20;10.32;;;17.30;89.80;;;;;;4986350;28;20392;-65
2023/06/20 04:45:11;;;;;;;16.33;10.35;;;17.40;89.70;;;;;;4986864;28;20079;-63
2023/06/20 04:47:37;;;;;;;15.07;10.95;;;17.40;89.90;;;;;;4986618;28;20045;-65
2023/06/20 04:50:03;;;;;;;13.63;11.10;;;17.60;89.50;;;;;;4985512;28;20508;-65
2023/06/20 04:52:32;;;;;;;16.95;11.35;;;17.60;89.10;;;;;;4985101;28;20049;-64
2023/06/20 04:55:02;;;;;;;14.55;11.00;;;17.70;89.30;;;;;;4987119;28;20045;-63
2023/06/20 04:57:32;;;;;;;16.55;11.55;;;17.80;88.90;;;;;;4985339;28;20477;-62
2023/06/20 04:59:58;;;;;;;15.65;11.13;;;18.00;88.60;;;;;;4987321;28;20037;-63
2023/06/20 05:02:24;;;;;;;14.73;11.07;;;18.00;87.80;;;;;;4989761;28;20061;-65
2023/06/20 05:04:50;;;;;;;15.68;10.73;;;18.20;87.30;;;;;;4987779;28;20038;-63
2023/06/20 05:07:16;;;;;;;14.50;10.15;;;18.40;87.30;;;;;;4985626;28;20030;-64
2023/06/20 05:09:42;;;;;;;16.45;8.88;;;18.50;86.10;;;;;;4985948;28;20030;-63
2023/06/20 05:12:07;;;;;;;14.60;10.00;;;18.70;86.20;;;;;;4986575;28;20030;-63
2023/06/20 05:14:33;;;;;;;12.00;8.18;;;18.80;85.00;;;;;;4986005;28;20057;-64
2023/06/20 05:16:58;;;;;;;12.23;8.57;;;19.00;85.40;;;;;;4986646;28;20042;-64
2023/06/20 05:19:24;;;;;;;12.80;8.27;;;19.10;83.90;;;;;;4986677;28;20152;-63
2023/06/20 05:21:49;;;;;;;11.43;7.88;;;19.10;82.90;;;;;;4994367;28;20359;-65
2023/06/20 05:24:15;;;;;;;12.40;7.95;;;19.40;84.20;;;;;;5002261;28;20045;-64
2023/06/20 05:26:40;;;;;;;13.70;7.57;;;19.50;83.70;;;;;;5004691;28;20034;-63
2023/06/20 05:29:06;;;;;;;12.48;7.75;;;19.50;81.70;;;;;;5001607;28;20042;-65
2023/06/20 05:31:32;;;;;;;10.32;7.78;;;19.60;81.90;;;;;;5000881;28;20080;-62
2023/06/20 05:33:57;;;;;;;9.68;6.78;;;19.80;81.50;;;;;;5003083;28;20028;-63
2023/06/20 05:36:23;;;;;;;11.65;7.65;;;20.00;81.80;;;;;;5026265;28;20151;-63
2023/06/20 05:38:48;;;;;;;10.68;7.32;;;20.10;80.60;;;;;;4997668;28;20434;-63
2023/06/20 05:41:15;;;;;;;8.25;6.35;;;20.30;80.40;;;;;;5018526;28;20052;-63
2023/06/20 05:43:40;;;;;;;8.73;6.55;;;20.40;80.70;;;;;;5011113;28;20410;-65
2023/06/20 05:46:06;;;;;;;11.43;6.80;;;20.50;80.10;;;;;;4997875;28;20156;-65
2023/06/20 05:48:32;;;;;;;10.52;6.90;;;20.60;81.30;;;;;;4996966;28;20101;-65
2023/06/20 05:51:00;;;;;;;7.93;6.25;;;20.60;78.80;;;;;;5008041;28;20120;-66
2023/06/20 05:53:27;;;;;;;8.02;6.10;;;20.70;78.70;;;;;;5001849;28;20124;-67
2023/06/20 05:55:52;;;;;;;10.75;6.78;;;20.80;79.10;;;;;;5006918;28;20188;-66
2023/06/20 05:58:18;;;;;;;8.48;6.20;;;20.80;79.50;;;;;;5002771;28;20397;-66
2023/06/20 06:00:45;;;;;;;9.38;6.47;;;20.80;80.20;;;;;;5001894;28;20033;-66
2023/06/20 06:03:11;;;;;;;14.10;6.53;;;20.90;79.00;;;;;;5007498;28;20055;-65
2023/06/20 06:05:36;;;;;;;10.77;6.88;;;20.90;77.00;;;;;;5001681;28;20041;-66
2023/06/20 06:08:02;;;;;;;7.53;5.82;;;20.90;76.70;;;;;;5004079;28;20374;-67
2023/06/20 06:10:28;;;;;;;10.65;6.60;;;20.90;78.00;;;;;;5007879;28;20102;-66
2023/06/20 06:12:53;;;;;;;8.80;6.18;;;20.90;76.60;;;;;;4999347;28;20045;-66
2023/06/20 06:15:19;;;;;;;8.30;6.00;;;21.00;76.70;;;;;;5005080;28;20084;-65
2023/06/20 06:17:44;;;;;;;10.32;6.07;;;21.00;77.30;;;;;;5007336;28;20042;-66
2023/06/20 06:20:17;;;;;;;9.88;6.18;;;21.10;76.70;;;;;;5011991;28;20057;-65
2023/06/20 06:22:43;;;;;;;8.00;5.70;;;21.30;75.80;;;;;;5016400;28;20054;-65
2023/06/20 06:25:08;;;;;;;8.27;5.45;;;21.50;75.40;;;;;;5010814;28;20042;-66
2023/06/20 06:27:34;;;;;;;7.95;5.22;;;21.40;73.70;;;;;;5016403;28;20029;-66
2023/06/20 06:30:00;;;;;;;10.05;5.22;;;21.50;74.70;;;;;;5006564;28;20049;-65
2023/06/20 06:32:27;;;;;;;10.95;5.95;;;21.60;74.30;;;;;;5008412;28;20035;-66
2023/06/20 06:34:53;;;;;;;10.43;5.38;;;21.70;72.40;;;;;;5016612;28;20314;-66
2023/06/20 06:37:20;;;;;;;13.88;5.63;;;21.80;73.50;;;;;;5013379;28;20181;-65
2023/06/20 06:39:46;;;;;;;9.48;5.70;;;21.70;73.30;;;;;;5002975;28;20033;-66
2023/06/20 06:42:12;;;;;;;9.65;5.78;;;21.90;73.10;;;;;;5002485;28;20518;-66
2023/06/20 06:44:37;;;;;;;11.15;5.65;;;21.80;72.40;;;;;;5005121;28;20125;-66
2023/06/20 06:47:03;;;;;;;7.28;4.95;;;21.70;72.30;;;;;;5010288;28;20397;-65
2023/06/20 06:49:31;;;;;;;13.10;6.07;;;21.80;71.20;;;;;;5006978;28;20041;-66
2023/06/20 06:51:56;;;;;;;8.45;5.22;;;21.90;74.10;;;;;;5008933;28;20061;-70
2023/06/20 06:54:22;;;;;;;8.25;5.28;;;22.00;72.90;;;;;;5013656;28;20076;-67
2023/06/20 06:56:47;;;;;;;7.53;5.10;;;22.00;70.60;;;;;;5013438;28;20090;-67
2023/06/20 06:59:13;;;;;;;8.98;5.80;;;22.10;71.30;;;;;;5013031;28;20034;-66
2023/06/20 07:01:39;;;;;;;9.85;5.35;;;22.20;71.80;;;;;;5012064;28;20030;-66
2023/06/20 07:04:05;;;;;;;7.53;5.38;;;22.50;71.80;;;;;;5012635;28;20073;-66
2023/06/20 07:06:30;;;;;;;7.85;5.25;;;22.60;70.40;;;;;;5022478;28;20022;-65
2023/06/20 07:08:56;;;;;;;9.80;6.03;;;22.70;70.10;;;;;;5015088;28;20045;-67
2023/06/20 07:11:22;;;;;;;14.82;5.95;;;22.80;69.30;;;;;;5015899;28;20128;-64
2023/06/20 07:13:47;;;;;;;9.10;5.50;;;22.80;67.50;;;;;;5018897;28;20018;-65
2023/06/20 07:16:13;;;;;;;7.05;5.45;;;22.80;69.20;;;;;;5015157;28;20041;-65
2023/06/20 07:18:39;;;;;;;9.85;6.03;;;22.90;68.10;;;;;;5011437;28;20422;-66
2023/06/20 07:21:05;;;;;;;7.53;5.38;;;23.20;71.30;;;;;;5020970;28;20548;-66
2023/06/20 07:23:32;;;;;;;16.85;6.10;;;23.40;70.90;;;;;;5020994;28;20050;-70
2023/06/20 07:25:58;;;;;;;9.85;5.82;;;23.60;71.10;;;;;;5000408;28;20108;-65
2023/06/20 07:28:25;;;;;;;11.77;5.53;;;23.80;69.90;;;;;;5011278;28;20041;-67
2023/06/20 07:30:50;;;;;;;10.80;6.18;;;23.60;68.90;;;;;;5006228;28;20748;-65
2023/06/20 07:33:16;;;;;;;7.43;4.88;;;23.40;65.40;;;;;;5006572;28;20041;-67
2023/06/20 07:35:41;;;;;;;7.15;5.13;;;23.30;66.10;;;;;;5012419;28;20406;-66
2023/06/20 07:38:07;;;;;;;9.13;5.47;;;23.50;65.60;;;;;;5008893;28;20054;-66
2023/06/20 07:40:32;;;;;;;10.65;4.82;;;23.60;68.50;;;;;;5007900;28;20040;-66
2023/06/20 07:42:58;;;;;;;10.77;5.20;;;24.00;68.00;;;;;;5018280;28;20319;-66
2023/06/20 07:45:23;;;;;;;7.95;5.38;;;24.00;68.30;;;;;;5005104;28;20046;-66
2023/06/20 07:47:49;;;;;;;7.10;5.03;;;24.10;65.70;;;;;;5007340;28;20065;-66
2023/06/20 07:50:14;;;;;;;8.45;5.32;;;24.30;65.60;;;;;;5001024;28;20042;-67
2023/06/20 07:52:40;;;;;;;8.40;5.15;;;24.70;63.00;;;;;;5010701;28;20454;-66
2023/06/20 07:55:06;;;;;;;8.35;5.32;;;24.80;65.40;;;;;;5013232;28;20056;-68
2023/06/20 07:57:31;;;;;;;11.02;4.90;;;25.30;64.60;;;;;;5012276;28;20137;-67
2023/06/20 07:59:57;;;;;;;8.57;5.25;;;25.60;64.40;;;;;;5012984;28;20152;-66
2023/06/20 08:02:22;;;;;;;8.63;5.20;;;25.50;61.90;;;;;;5011956;28;20108;-68
2023/06/20 08:04:48;;;;;;;7.40;5.03;;;25.20;60.20;;;;;;5014648;28;20029;-67
2023/06/20 08:07:14;;;;;;;7.22;5.07;;;25.60;61.80;;;;;;5002141;28;20056;-67
2023/06/20 08:09:40;;;;;;;10.00;5.30;;;26.10;61.50;;;;;;5006386;28;20049;-66
2023/06/20 08:12:06;;;;;;;7.70;5.45;;;25.90;61.20;;;;;;5010539;28;20087;-67
2023/06/20 08:14:31;;;;;;;7.82;5.60;;;26.00;58.80;;;;;;5008623;28;20101;-69
2023/06/20 08:16:57;;;;;;;7.82;5.53;;;26.00;60.30;;;;;;5006963;28;20522;-67
2023/06/20 08:19:22;;;;;;;9.95;5.50;;;26.00;60.80;;;;;;5015682;28;20034;-69
2023/06/20 08:21:48;;;;;;;7.75;4.75;;;25.80;59.80;;;;;;4998934;28;20038;-68
2023/06/20 08:24:13;;;;;;;7.68;5.30;;;25.90;61.90;;;;;;5002788;28;20116;-67
2023/06/20 08:26:39;;;;;;;7.80;5.28;;;25.50;62.50;;;;;;5002584;28;20060;-69
2023/06/20 08:29:04;;;;;;;7.07;5.22;;;25.50;61.80;;;;;;5001410;28;20449;-67
2023/06/20 08:31:36;;;;;;;10.60;5.68;;;25.60;60.90;;;;;;5013288;28;20155;-68
2023/06/20 08:34:02;;;;;;;7.93;5.43;;;26.00;62.80;;;;;;5012544;28;20406;-68
2023/06/20 08:36:28;;;;;;;7.22;5.10;;;26.00;61.20;;;;;;5009917;28;20025;-67
2023/06/20 08:38:53;;;;;;;10.52;5.30;;;25.70;61.50;;;;;;5012043;28;20029;-68
2023/06/20 08:41:25;;;;;;;8.23;6.40;;;25.90;62.30;;;;;;5010937;28;20077;-67
2023/06/20 08:43:50;;;;;;;8.65;5.32;;;25.30;61.20;;;;;;5011893;28;20084;-68
2023/06/20 08:46:16;;;;;;;8.60;5.45;;;25.20;62.70;;;;;;5005658;28;20450;-68
2023/06/20 08:48:41;;;;;;;8.07;5.18;;;25.20;63.30;;;;;;5008275;28;20042;-67
2023/06/20 08:51:07;;;;;;;7.60;5.60;;;25.30;65.20;;;;;;5012159;28;20037;-67
2023/06/20 08:53:34;;;;;;;8.15;5.55;;;25.40;64.20;;;;;;5008694;28;20411;-67
2023/06/20 08:56:01;;;;;;;8.07;5.40;;;25.30;63.60;;;;;;5012732;28;20026;-71
2023/06/20 08:58:26;;;;;;;12.45;5.75;;;25.40;62.10;;;;;;5010463;28;20102;-68
2023/06/20 09:00:52;;;;;;;10.52;6.43;;;25.20;63.80;;;;;;5007657;28;20045;-67
2023/06/20 09:03:17;;;;;;;10.07;6.30;;;25.50;62.60;;;;;;5008230;28;20405;-68
2023/06/20 09:05:45;;;;;;;9.85;5.93;;;25.40;61.70;;;;;;5001259;28;20442;-69
2023/06/20 09:08:15;;;;;;;10.02;5.63;;;25.30;62.10;;;;;;5001166;28;20395;-67
2023/06/20 09:10:41;;;;;;;10.43;5.55;;;25.70;64.20;;;;;;5001063;28;20590;-68
2023/06/20 09:13:08;;;;;;;8.77;5.22;;;25.80;63.60;;;;;;4999477;28;20798;-67
2023/06/20 09:15:34;;;;;;;9.07;5.40;;;25.90;62.50;;;;;;5005620;28;20419;-68
2023/06/20 09:18:01;;;;;;;10.85;5.80;;;25.90;63.10;;;;;;5006528;28;20040;-67
2023/06/20 09:20:31;;;;;;;9.25;6.00;;;26.00;63.50;;;;;;5010317;28;20031;-69
2023/06/20 09:22:57;;;;;;;6.68;5.30;;;26.00;62.50;;;;;;5006496;28;20026;-68
2023/06/20 09:25:28;;;;;;;9.13;5.43;;;26.20;63.50;;;;;;5005303;28;20081;-66
2023/06/20 09:27:55;;;;;;;9.40;5.45;;;25.90;62.60;;;;;;5012583;28;20060;-67
2023/06/20 09:30:20;;;;;;;8.90;5.40;;;26.20;63.40;;;;;;5004581;28;20121;-67
2023/06/20 09:32:46;;;;;;;7.72;5.18;;;26.00;63.70;;;;;;5009324;28;20124;-68
2023/06/20 09:35:14;;;;;;;8.45;6.07;;;26.20;64.40;;;;;;5006965;28;20312;-70
2023/06/20 09:37:42;;;;;;;7.32;5.32;;;26.60;62.10;;;;;;5007955;28;20346;-68
2023/06/20 09:40:12;;;;;;;6.32;5.28;;;26.40;62.20;;;;;;5009987;28;20375;-68
2023/06/20 09:42:39;;;;;;;;;;;26.40;61.90;;;;;;5010925;28;20319;-68
2023/06/20 09:45:05;;;;;;;6.95;5.03;;;26.70;61.60;;;;;;5008946;28;20369;-67
2023/06/20 09:47:31;;;;;;;9.15;5.45;;;26.90;62.30;;;;;;5009694;28;20407;-67
2023/06/20 09:49:57;;;;;;;10.63;5.43;;;26.70;60.20;;;;;;5010882;28;20354;-68
2023/06/20 09:52:36;;;;;;;7.80;4.88;;;26.90;60.90;;;;;;5009580;28;20018;-68
2023/06/20 09:55:08;;;;;;;9.13;5.43;;;26.80;61.10;;;;;;5008815;28;20088;-67
2023/06/20 09:58:04;;;;;;;8.48;5.55;;;26.30;62.50;;;;;;5012067;28;20058;-67
2023/06/20 10:00:31;;;;;;;8.32;5.50;;;26.20;62.40;;;;;;5010487;28;20033;-68
2023/06/20 10:03:04;;;;;;;9.93;5.45;;;26.30;62.30;;;;;;5018785;28;20046;-68
2023/06/20 10:05:32;;;;;;;6.88;5.32;;;26.40;61.90;;;;;;5010821;28;20043;-67
2023/06/20 10:07:59;;;;;;;7.88;5.18;;;26.20;60.70;;;;;;5006157;28;20090;-72
2023/06/20 10:10:25;;;;;;;7.63;5.57;;;26.20;63.10;;;;;;5005103;28;20041;-68
2023/06/20 10:12:51;;;;;;;6.88;5.28;;;26.00;64.20;;;;;;5009472;28;20381;-67
2023/06/20 10:15:17;;;;;;;8.95;5.63;;;25.90;62.80;;;;;;5006792;28;20373;-69
2023/06/20 10:17:47;;;;;;;9.68;5.40;;;25.90;63.30;;;;;;5016379;28;20104;-68
2023/06/20 10:20:29;;;;;;;7.30;5.22;;;25.90;62.90;;;;;;5008373;28;20060;-72
2023/06/20 10:22:58;;;;;;;7.70;5.82;;;26.00;62.70;;;;;;5014877;28;20036;-66
2023/06/20 10:25:26;;;;;;;8.90;5.50;;;25.70;62.50;;;;;;5019221;28;20278;-67
2023/06/20 10:28:01;;;;;;;9.50;5.90;;;25.60;63.90;;;;;;5009078;28;20029;-67
2023/06/20 10:33:14;;;;;;;8.98;5.85;;;25.90;64.90;;;;;;5013131;28;20137;-66
2023/06/20 10:35:56;;;;;;;9.35;5.68;;;25.40;63.90;;;;;;5008340;28;20128;-67
2023/06/20 10:38:22;;;;;;;7.90;5.90;;;25.50;63.40;;;;;;5017350;28;20532;-69
2023/06/20 10:41:04;;;;;;;8.40;5.72;;;25.50;65.20;;;;;;5017534;28;20105;-67
2023/06/20 10:43:29;;;;;;;8.43;5.97;;;25.50;65.90;;;;;;5013276;28;20453;-66
2023/06/20 10:45:59;;;;;;;7.95;5.70;;;25.40;65.60;;;;;;5015230;28;20044;-66
2023/06/20 10:48:26;;;;;;;6.55;5.28;;;25.40;65.40;;;;;;5010484;28;20449;-67
2023/06/20 10:50:59;;;;;;;8.63;5.78;;;25.40;64.50;;;;;;5017166;28;20057;-68
2023/06/20 10:53:29;;;;;;;7.28;5.47;;;25.40;64.20;;;;;;5010428;28;20514;-67
2023/06/20 10:55:55;;;;;;;9.55;5.53;;;25.50;64.80;;;;;;5020979;28;20022;-67
2023/06/20 10:58:20;;;;;;;8.10;5.70;;;25.60;64.00;;;;;;5008737;28;20362;-67
2023/06/20 11:00:46;;;;;;;8.05;5.85;;;25.70;65.70;;;;;;5015950;28;20385;-67
2023/06/20 11:03:11;;;;;;;9.15;5.85;;;25.70;64.70;;;;;;5008363;28;20076;-70
2023/06/20 11:05:37;;;;;;;7.75;5.75;;;25.70;64.70;;;;;;5006498;28;20331;-68
2023/06/20 11:08:10;;;;;;;8.18;5.50;;;25.80;63.10;;;;;;5013830;28;20481;-68
2023/06/20 11:10:37;;;;;;;6.97;5.60;;;25.90;63.70;;;;;;5006725;28;20105;-67
2023/06/20 11:13:04;;;;;;;7.75;5.65;;;26.40;63.30;;;;;;5009611;28;20064;-68
2023/06/20 11:15:35;;;;;;;8.68;5.97;;;26.20;62.70;;;;;;5009107;28;20026;-68
2023/06/20 11:18:06;;;;;;;8.23;5.50;;;26.40;61.40;;;;;;5019007;28;20077;-68
2023/06/20 11:20:36;;;;;;;7.13;5.63;;;26.40;61.00;;;;;;5005586;28;20026;-68
2023/06/20 11:23:06;;;;;;;8.35;5.95;;;26.40;60.80;;;;;;5003506;28;20013;-70
2023/06/20 11:25:34;;;;;;;7.85;5.50;;;26.80;61.10;;;;;;5003000;28;20068;-68
2023/06/20 11:28:08;;;;;;;7.88;6.03;;;26.70;60.60;;;;;;5011269;28;20133;-70
2023/06/20 11:30:35;;;;;;;6.75;5.50;;;26.70;59.80;;;;;;5013508;28;20379;-68
2023/06/20 11:33:09;;;;;;;8.45;6.07;;;27.20;60.80;;;;;;5020722;28;20044;-69
2023/06/20 11:35:46;;;;;;;7.57;5.70;;;27.40;58.90;;;;;;5010376;28;20033;-68
2023/06/20 11:38:14;;;;;;;7.10;5.72;;;27.60;59.70;;;;;;5009745;28;20354;-68
2023/06/20 11:40:45;;;;;;;6.82;5.53;;;27.80;59.70;;;;;;5024937;28;20025;-69
2023/06/20 11:43:22;;;;;;;8.02;5.80;;;28.00;57.30;;;;;;5021935;28;20381;-68
2023/06/20 11:45:47;;;;;;;7.72;5.60;;;28.50;58.00;;;;;;5010859;28;20013;-68
2023/06/20 11:48:14;;;;;;;7.10;5.63;;;28.70;57.40;;;;;;5019977;28;20072;-69
2023/06/20 11:50:42;;;;;;;8.60;6.05;;;28.80;56.30;;;;;;5011274;28;20037;-69
2023/06/20 11:53:24;;;;;;;9.77;5.85;;;28.90;54.70;;;;;;5011365;28;20025;-68
2023/06/20 11:55:55;;;;;;;6.63;5.35;;;28.90;54.30;;;;;;5010897;28;20034;-70
2023/06/20 11:58:21;;;;;;;9.20;5.60;;;29.70;54.60;;;;;;5010441;28;20022;-69
2023/06/20 12:00:57;;;;;;;7.68;4.95;;;30.00;54.90;;;;;;5004652;28;20454;-67
2023/06/20 12:03:22;;;;;;;7.70;5.45;;;29.50;52.90;;;;;;5016135;28;20060;-67
2023/06/20 12:05:48;;;;;;;7.13;5.00;;;29.70;53.40;;;;;;5009129;28;20291;-67
2023/06/20 12:08:14;;;;;;;6.18;4.68;;;29.70;53.60;;;;;;5010726;28;20032;-67
2023/06/20 12:10:45;;;;;;;6.70;5.18;;;29.90;53.90;;;;;;5015564;28;20030;-71
2023/06/20 12:13:11;;;;;;;8.73;4.88;;;29.80;52.50;;;;;;5012154;28;20037;-67
2023/06/20 12:15:36;;;;;;;7.45;4.95;;;30.00;54.00;;;;;;5012398;28;20047;-67
2023/06/20 12:18:02;;;;;;;9.50;4.63;;;30.20;52.10;;;;;;5022295;28;20021;-67
2023/06/20 12:20:28;;;;;;;5.55;4.38;;;29.20;53.40;;;;;;5000437;28;20026;-68
2023/06/20 12:22:53;;;;;;;6.88;5.05;;;28.90;52.70;;;;;;5010515;28;20077;-66
2023/06/20 12:25:19;;;;;;;7.45;4.75;;;28.50;54.00;;;;;;5008231;28;20065;-68
2023/06/20 12:27:44;;;;;;;9.73;5.35;;;28.70;54.10;;;;;;5013858;28;20033;-67
2023/06/20 12:30:10;;;;;;;8.25;5.32;;;28.50;53.40;;;;;;5012774;28;20450;-68
2023/06/20 12:32:36;;;;;;;6.95;5.13;;;28.50;54.80;;;;;;5007017;28;20023;-68
2023/06/20 12:35:01;;;;;;;8.80;5.22;;;28.80;53.50;;;;;;4998906;28;20021;-67
2023/06/20 12:37:27;;;;;;;6.90;4.78;;;29.00;53.70;;;;;;5002014;28;20025;-67
2023/06/20 12:39:53;;;;;;;8.00;4.90;;;29.30;53.80;;;;;;5007268;28;20126;-67
2023/06/20 12:42:19;;;;;;;6.43;4.97;;;29.60;53.00;;;;;;5009365;28;20033;-67